createdAt,value
2019-05-06T00:00:34.082Z,99.90
2019-05-06T00:03:20.976Z,99.90
2019-05-06T00:06:06.937Z,99.90
2019-05-06T00:08:54.939Z,99.90
2019-05-06T00:11:44.839Z,99.90
2019-05-06T00:14:33.834Z,99.90
2019-05-06T00:17:21.353Z,99.90
2019-05-06T00:20:08.780Z,99.90
2019-05-06T00:23:01.012Z,99.90
2019-05-06T00:26:06.261Z,99.90
2019-05-06T00:29:04.617Z,99.90
2019-05-06T00:31:53.514Z,99.90
2019-05-06T00:34:43.574Z,99.90
2019-05-06T00:37:29.450Z,99.90
2019-05-06T00:40:17.815Z,99.90
2019-05-06T00:43:07.832Z,99.90
2019-05-06T00:45:56.826Z,99.90
2019-05-06T00:48:46.817Z,99.90
2019-05-06T00:51:36.333Z,99.90
2019-05-06T00:54:26.484Z,99.90
2019-05-06T00:57:15.387Z,99.90
2019-05-06T01:00:04.142Z,99.90
2019-05-06T01:02:54.091Z,99.90
2019-05-06T01:05:40.939Z,99.90
2019-05-06T01:08:28.287Z,99.90
2019-05-06T01:11:15.864Z,99.90
2019-05-06T01:14:10.715Z,99.90
2019-05-06T01:16:59.033Z,99.90
2019-05-06T01:19:47.412Z,99.90
2019-05-06T01:22:37.270Z,99.90
2019-05-06T01:25:25.861Z,99.90
2019-05-06T01:28:14.951Z,99.90
2019-05-06T01:31:06.123Z,99.90
2019-05-06T01:33:54.076Z,99.90
2019-05-06T01:36:43.783Z,99.90
2019-05-06T01:39:34.170Z,99.90
2019-05-06T01:42:27.154Z,99.90
2019-05-06T01:45:15.685Z,99.90
2019-05-06T01:48:04.036Z,99.90
2019-05-06T01:50:51.183Z,99.90
2019-05-06T01:53:39.544Z,99.90
2019-05-06T01:56:27.892Z,99.90
2019-05-06T01:59:16.004Z,99.90
2019-05-06T02:02:04.464Z,99.90
2019-05-06T02:04:54.097Z,99.90
2019-05-06T02:07:44.118Z,99.90
2019-05-06T02:10:30.707Z,99.90
2019-05-06T02:13:17.805Z,99.90
2019-05-06T02:16:05.235Z,99.90
2019-05-06T02:18:53.990Z,99.90
2019-05-06T02:21:45.353Z,99.90
2019-05-06T02:24:37.352Z,99.90
2019-05-06T02:27:24.746Z,99.90
2019-05-06T02:30:17.505Z,99.90
2019-05-06T02:33:09.461Z,99.90
2019-05-06T02:36:00.548Z,99.90
2019-05-06T02:38:54.761Z,99.90
2019-05-06T02:41:38.449Z,99.90
2019-05-06T02:44:25.384Z,99.90
2019-05-06T02:47:14.263Z,99.90
2019-05-06T02:50:23.936Z,99.90
2019-05-06T02:53:13.318Z,99.90
2019-05-06T02:56:04.215Z,99.90
2019-05-06T02:58:53.417Z,99.90
2019-05-06T03:01:42.999Z,99.90
2019-05-06T03:04:28.159Z,99.90
2019-05-06T03:07:15.267Z,99.90
2019-05-06T03:10:04.211Z,99.90
2019-05-06T03:12:53.832Z,99.90
2019-05-06T03:15:43.318Z,99.90
2019-05-06T03:18:32.737Z,99.90
2019-05-06T03:21:27.855Z,99.90
2019-05-06T03:24:17.602Z,99.90
2019-05-06T03:27:06.843Z,99.90
2019-05-06T03:29:55.781Z,99.90
2019-05-06T03:33:20.984Z,99.90
2019-05-06T03:35:48.139Z,99.90
2019-05-06T03:38:22.900Z,99.90
2019-05-06T03:41:13.625Z,99.90
2019-05-06T03:44:03.232Z,99.90
2019-05-06T03:47:08.084Z,99.90
2019-05-06T03:49:55.817Z,99.90
2019-05-06T03:52:43.554Z,99.90
2019-05-06T03:55:34.271Z,99.90
2019-05-06T03:58:26.282Z,99.90
2019-05-06T04:01:13.180Z,99.90
2019-05-06T04:04:03.320Z,99.90
2019-05-06T04:06:49.931Z,99.90
2019-05-06T04:09:38.335Z,99.90
2019-05-06T04:12:26.880Z,99.90
2019-05-06T04:15:14.304Z,99.90
2019-05-06T04:18:08.015Z,99.90
2019-05-06T04:20:56.501Z,99.90
2019-05-06T04:23:58.224Z,99.90
2019-05-06T04:26:53.574Z,99.90
2019-05-06T04:29:42.831Z,99.90
2019-05-06T04:32:30.336Z,99.90
2019-05-06T04:35:16.919Z,99.90
2019-05-06T04:38:05.391Z,99.90
2019-05-06T04:40:53.834Z,99.90
2019-05-06T04:43:43.914Z,99.90
2019-05-06T04:46:34.333Z,99.90
2019-05-06T04:49:23.608Z,99.90
2019-05-06T04:52:13.908Z,99.90
2019-05-06T04:55:03.786Z,99.90
2019-05-06T04:57:53.609Z,99.90
2019-05-06T05:00:44.598Z,99.90
2019-05-06T05:03:33.360Z,99.90
2019-05-06T05:06:19.913Z,99.90
2019-05-06T05:09:08.054Z,99.90
2019-05-06T05:11:58.490Z,99.90
2019-05-06T05:14:51.957Z,99.90
2019-05-06T05:17:47.627Z,99.90
2019-05-06T05:20:44.115Z,99.90
2019-05-06T05:23:28.277Z,99.90
2019-05-06T05:26:16.174Z,99.90
2019-05-06T05:29:04.474Z,99.90
2019-05-06T05:31:52.973Z,99.90
2019-05-06T05:34:43.573Z,99.90
2019-05-06T05:37:32.876Z,99.90
2019-05-06T05:40:22.530Z,99.90
2019-05-06T05:43:12.565Z,99.90
2019-05-06T05:45:59.788Z,99.90
2019-05-06T05:48:57.357Z,99.90
2019-05-06T05:51:46.277Z,99.90
2019-05-06T05:54:35.251Z,99.90
2019-05-06T05:57:22.648Z,99.90
2019-05-06T06:00:09.985Z,99.90
2019-05-06T06:02:56.900Z,99.90
2019-05-06T06:05:43.713Z,99.90
2019-05-06T06:08:32.261Z,99.90
2019-05-06T06:11:26.845Z,99.90
2019-05-06T06:14:33.197Z,99.90
2019-05-06T06:17:36.059Z,99.90
2019-05-06T06:20:42.425Z,99.90
2019-05-06T06:23:32.386Z,99.90
2019-05-06T06:26:22.694Z,99.90
2019-05-06T06:29:12.383Z,99.90
2019-05-06T06:32:13.735Z,99.90
2019-05-06T06:35:10.665Z,99.90
2019-05-06T06:37:55.818Z,99.90
2019-05-06T06:40:43.437Z,99.90
2019-05-06T06:43:38.215Z,99.90
2019-05-06T06:46:26.650Z,99.90
2019-05-06T06:49:14.124Z,99.90
2019-05-06T06:52:02.790Z,99.90
2019-05-06T06:54:52.475Z,99.90
2019-05-06T06:57:49.134Z,99.90
2019-05-06T07:00:55.451Z,99.90
2019-05-06T07:03:44.741Z,99.10
2019-05-06T07:06:33.498Z,99.20
2019-05-06T07:09:20.192Z,98.00
2019-05-06T07:12:07.935Z,98.60
2019-05-06T07:15:02.810Z,97.50
2019-05-06T07:17:48.980Z,98.00
2019-05-06T07:20:54.045Z,97.70
2019-05-06T07:23:42.338Z,97.30
2019-05-06T07:26:33.181Z,97.40
2019-05-06T07:29:25.797Z,97.50
2019-05-06T07:32:08.840Z,97.80
2019-05-06T07:34:55.991Z,97.50
2019-05-06T07:37:42.617Z,96.90
2019-05-06T07:40:29.921Z,97.50
2019-05-06T07:43:36.344Z,97.30
2019-05-06T07:46:29.264Z,97.50
2019-05-06T07:49:19.844Z,97.50
2019-05-06T07:52:08.014Z,95.70
2019-05-06T07:54:59.686Z,95.90
2019-05-06T07:57:49.664Z,97.30
2019-05-06T08:00:37.455Z,95.80
2019-05-06T08:03:26.145Z,96.30
2019-05-06T08:06:13.498Z,96.50
2019-05-06T08:09:03.121Z,94.70
2019-05-06T08:11:53.074Z,95.10
2019-05-06T08:14:43.515Z,93.60
2019-05-06T08:17:33.188Z,94.10
2019-05-06T08:20:22.140Z,91.20
2019-05-06T08:23:27.696Z,91.20
2019-05-06T08:26:17.710Z,91.00
2019-05-06T08:29:04.141Z,89.40
2019-05-06T08:31:52.361Z,90.00
2019-05-06T08:34:38.875Z,90.70
2019-05-06T08:37:33.187Z,88.70
2019-05-06T08:40:22.583Z,90.20
2019-05-06T08:43:07.927Z,90.90
2019-05-06T08:45:54.827Z,91.90
2019-05-06T08:48:42.841Z,92.80
2019-05-06T08:51:48.426Z,92.40
2019-05-06T08:54:37.201Z,86.70
2019-05-06T08:57:25.486Z,89.00
2019-05-06T09:00:12.866Z,86.20
2019-05-06T09:03:00.028Z,83.60
2019-05-06T09:05:56.309Z,88.00
2019-05-06T09:08:43.405Z,90.90
2019-05-06T09:11:32.189Z,80.20
2019-05-06T09:14:22.910Z,88.30
2019-05-06T09:17:09.498Z,84.40
2019-05-06T09:19:56.088Z,90.20
2019-05-06T09:22:43.761Z,85.10
2019-05-06T09:25:32.383Z,77.20
2019-05-06T09:28:34.091Z,77.90
2019-05-06T09:31:26.369Z,81.10
2019-05-06T09:34:32.628Z,77.40
2019-05-06T09:37:23.604Z,80.40
2019-05-06T09:40:12.573Z,76.60
2019-05-06T09:42:59.652Z,79.90
2019-05-06T09:45:47.107Z,71.80
2019-05-06T09:48:42.575Z,75.20
2019-05-06T09:51:32.364Z,69.80
2019-05-06T09:54:19.980Z,69.50
2019-05-06T09:57:23.401Z,69.30
2019-05-06T10:00:12.481Z,66.20
2019-05-06T10:03:03.268Z,81.90
2019-05-06T10:05:53.037Z,75.00
2019-05-06T10:08:40.758Z,73.80
2019-05-06T10:11:29.121Z,73.90
2019-05-06T10:14:16.867Z,67.30
2019-05-06T10:17:04.571Z,74.50
2019-05-06T10:19:53.439Z,74.00
2019-05-06T10:22:42.913Z,75.80
2019-05-06T10:25:29.604Z,70.00
2019-05-06T10:28:27.490Z,64.00
2019-05-06T10:31:16.250Z,69.50
2019-05-06T10:34:14.470Z,73.60
2019-05-06T10:37:15.338Z,69.30
2019-05-06T10:40:04.682Z,68.50
2019-05-06T10:43:18.682Z,63.30
2019-05-06T10:46:07.096Z,59.00
2019-05-06T10:48:54.497Z,59.40
2019-05-06T10:51:49.746Z,76.10
2019-05-06T10:54:37.626Z,70.30
2019-05-06T10:57:32.902Z,60.20
2019-05-06T11:00:23.035Z,63.70
2019-05-06T11:03:14.403Z,68.70
2019-05-06T11:06:16.733Z,57.60
2019-05-06T11:09:07.154Z,55.70
2019-05-06T11:11:55.359Z,61.70
2019-05-06T11:14:44.710Z,59.60
2019-05-06T11:17:33.300Z,52.10
2019-05-06T11:20:20.766Z,61.60
2019-05-06T11:23:07.919Z,62.10
2019-05-06T11:25:55.843Z,64.00
2019-05-06T11:28:47.340Z,54.50
2019-05-06T11:31:37.317Z,54.50
2019-05-06T11:34:29.345Z,53.70
2019-05-06T11:37:19.418Z,62.20
2019-05-06T11:40:08.212Z,53.50
2019-05-06T11:42:55.422Z,67.40
2019-05-06T11:45:43.518Z,54.50
2019-05-06T11:48:32.609Z,56.10
2019-05-06T11:51:23.068Z,50.10
2019-05-06T11:54:19.446Z,51.80
2019-05-06T11:56:59.161Z,47.90
2019-05-06T11:59:46.172Z,54.80
2019-05-06T12:02:34.169Z,52.30
2019-05-06T12:05:22.338Z,50.10
2019-05-06T12:08:13.675Z,52.30
2019-05-06T12:10:59.603Z,48.40
2019-05-06T12:13:48.628Z,47.10
2019-05-06T12:16:35.533Z,46.60
2019-05-06T12:19:22.589Z,54.50
2019-05-06T12:22:12.456Z,53.80
2019-05-06T12:24:58.957Z,48.40
2019-05-06T12:27:47.283Z,47.10
2019-05-06T12:30:34.489Z,51.80
2019-05-06T12:33:29.185Z,49.40
2019-05-06T12:36:21.899Z,47.50
2019-05-06T12:39:17.105Z,46.80
2019-05-06T12:42:05.548Z,47.80
2019-05-06T12:44:53.789Z,50.70
2019-05-06T12:47:43.498Z,54.00
2019-05-06T12:50:33.238Z,51.10
2019-05-06T12:53:20.226Z,57.10
2019-05-06T12:56:08.083Z,55.30
2019-05-06T12:58:56.126Z,46.70
2019-05-06T13:01:45.385Z,48.90
2019-05-06T13:04:50.184Z,52.00
2019-05-06T13:07:22.865Z,50.70
2019-05-06T13:10:12.941Z,45.00
2019-05-06T13:13:01.439Z,46.90
2019-05-06T13:15:48.045Z,46.70
2019-05-06T13:18:34.901Z,51.50
2019-05-06T13:21:22.433Z,55.30
2019-05-06T13:24:12.147Z,55.00
2019-05-06T13:26:59.342Z,51.60
2019-05-06T13:29:47.151Z,49.20
2019-05-06T13:32:44.980Z,53.80
2019-05-06T13:35:32.930Z,49.10
2019-05-06T13:38:18.817Z,44.90
2019-05-06T13:41:05.787Z,47.60
2019-05-06T13:43:54.689Z,51.40
2019-05-06T13:46:43.860Z,48.40
2019-05-06T13:49:33.008Z,55.60
2019-05-06T13:52:19.429Z,58.10
2019-05-06T13:55:07.709Z,62.10
2019-05-06T13:57:54.002Z,63.80
2019-05-06T14:00:42.677Z,63.40
2019-05-06T14:03:32.101Z,66.40
2019-05-06T14:06:19.994Z,65.60
2019-05-06T14:09:07.812Z,67.90
2019-05-06T14:11:57.099Z,70.40
2019-05-06T14:14:45.356Z,67.70
2019-05-06T14:17:32.834Z,68.20
2019-05-06T14:20:19.298Z,70.30
2019-05-06T14:23:06.466Z,70.20
2019-05-06T14:26:07.787Z,73.40
2019-05-06T14:29:09.529Z,74.30
2019-05-06T14:32:09.301Z,72.20
2019-05-06T14:34:57.335Z,73.80
2019-05-06T14:37:45.376Z,74.90
2019-05-06T14:40:34.215Z,73.30
2019-05-06T14:43:22.839Z,73.60
2019-05-06T14:46:11.131Z,73.40
2019-05-06T14:48:40.457Z,76.70
2019-05-06T14:51:10.140Z,74.50
2019-05-06T14:53:44.741Z,76.20
2019-05-06T14:56:27.353Z,75.80
2019-05-06T14:59:04.876Z,77.20
2019-05-06T15:01:34.623Z,76.00
2019-05-06T15:04:04.755Z,76.60
2019-05-06T15:06:33.183Z,76.90
2019-05-06T15:09:06.620Z,78.70
2019-05-06T15:11:36.913Z,78.20
2019-05-06T15:14:05.219Z,78.30
2019-05-06T15:16:35.275Z,76.80
2019-05-06T15:19:05.161Z,76.60
2019-05-06T15:21:38.585Z,77.70
2019-05-06T15:24:06.722Z,77.10
2019-05-06T15:26:35.680Z,77.60
2019-05-06T15:29:03.564Z,78.90
2019-05-06T15:31:34.753Z,78.50
2019-05-06T15:34:15.183Z,79.20
2019-05-06T15:36:52.995Z,76.30
2019-05-06T15:39:23.565Z,77.60
2019-05-06T15:41:56.985Z,79.90
2019-05-06T15:44:25.321Z,78.70
2019-05-06T15:46:53.181Z,74.50
2019-05-06T15:49:22.566Z,77.80
2019-05-06T15:51:53.437Z,72.00
2019-05-06T15:54:23.160Z,72.80
2019-05-06T15:56:53.211Z,78.10
2019-05-06T15:59:25.336Z,78.90
2019-05-06T16:01:54.678Z,78.80
2019-05-06T16:04:25.256Z,79.00
2019-05-06T16:06:55.884Z,79.40
2019-05-06T16:09:25.329Z,80.40
2019-05-06T16:11:55.658Z,81.00
2019-05-06T16:14:24.833Z,81.90
2019-05-06T16:16:52.923Z,80.00
2019-05-06T16:19:24.195Z,80.60
2019-05-06T16:21:54.118Z,82.30
2019-05-06T16:24:34.621Z,82.10
2019-05-06T16:27:15.756Z,79.90
2019-05-06T16:30:04.697Z,81.10
2019-05-06T16:32:34.405Z,83.20
2019-05-06T16:35:05.118Z,83.20
2019-05-06T16:37:35.854Z,81.70
2019-05-06T16:40:06.198Z,82.00
2019-05-06T16:42:35.526Z,82.10
2019-05-06T16:45:08.423Z,81.90
2019-05-06T16:47:39.060Z,83.60
2019-05-06T16:50:13.238Z,81.30
2019-05-06T16:52:52.349Z,83.10
2019-05-06T16:55:24.514Z,84.30
2019-05-06T16:57:55.769Z,84.60
2019-05-06T17:00:25.902Z,86.40
2019-05-06T17:03:01.816Z,84.80
2019-05-06T17:05:37.609Z,84.20
2019-05-06T17:08:05.559Z,83.20
2019-05-06T17:10:40.572Z,85.40
2019-05-06T17:13:09.309Z,84.50
2019-05-06T17:15:39.860Z,84.50
2019-05-06T17:18:08.542Z,82.90
2019-05-06T17:20:39.372Z,84.00
2019-05-06T17:23:09.475Z,85.00
2019-05-06T17:25:38.300Z,85.80
2019-05-06T17:28:16.366Z,85.00
2019-05-06T17:30:47.397Z,84.80
2019-05-06T17:33:36.025Z,86.10
2019-05-06T17:36:05.319Z,85.50
2019-05-06T17:38:45.290Z,87.70
2019-05-06T17:41:17.439Z,86.90
2019-05-06T17:43:46.649Z,87.80
2019-05-06T17:46:17.391Z,88.90
2019-05-06T17:48:53.381Z,89.50
2019-05-06T17:51:30.396Z,89.30
2019-05-06T17:54:01.226Z,90.30
2019-05-06T17:56:30.581Z,90.40
2019-05-06T17:58:59.515Z,90.40
2019-05-06T18:01:29.057Z,91.20
2019-05-06T18:04:02.086Z,90.60
2019-05-06T18:06:32.466Z,91.10
2019-05-06T18:09:02.570Z,90.80
2019-05-06T18:11:33.309Z,91.00
2019-05-06T18:14:04.071Z,91.20
2019-05-06T18:16:35.808Z,91.00
2019-05-06T18:19:06.432Z,92.00
2019-05-06T18:21:36.904Z,91.20
2019-05-06T18:24:09.779Z,91.20
2019-05-06T18:26:38.814Z,91.70
2019-05-06T18:29:06.964Z,92.00
2019-05-06T18:31:37.576Z,91.80
2019-05-06T18:34:07.694Z,91.80
2019-05-06T18:36:36.470Z,92.20
2019-05-06T18:39:06.341Z,92.90
2019-05-06T18:41:36.680Z,93.70
2019-05-06T18:44:06.583Z,94.20
2019-05-06T18:46:35.828Z,94.10
2019-05-06T18:49:05.265Z,94.00
2019-05-06T18:51:36.348Z,94.50
2019-05-06T18:54:09.335Z,94.50
2019-05-06T18:56:42.765Z,95.10
2019-05-06T18:59:12.943Z,95.30
2019-05-06T19:01:43.412Z,95.70
2019-05-06T19:04:22.568Z,96.00
2019-05-06T19:06:59.027Z,95.90
2019-05-06T19:09:24.045Z,96.40
2019-05-06T19:11:54.449Z,96.60
2019-05-06T19:17:52.603Z,96.80
2019-05-06T19:20:49.569Z,96.60
2019-05-06T19:23:39.964Z,96.40
2019-05-06T19:29:17.381Z,97.20
2019-05-06T19:31:47.753Z,97.30
2019-05-06T19:34:28.817Z,97.70
2019-05-06T19:37:02.404Z,97.60
2019-05-06T19:39:38.026Z,97.70
2019-05-06T19:42:16.834Z,97.90
2019-05-06T19:57:32.443Z,98.70
2019-05-06T20:00:26.303Z,98.80
2019-05-06T20:03:23.080Z,99.20
2019-05-06T20:06:27.029Z,99.10
2019-05-06T20:12:24.591Z,99.90
2019-05-06T20:19:02.214Z,99.90
2019-05-06T20:22:01.923Z,99.90
2019-05-06T20:24:39.470Z,99.90
2019-05-06T20:27:14.981Z,99.90
2019-05-06T20:29:52.168Z,99.90
2019-05-06T20:32:19.711Z,99.90
2019-05-06T20:34:50.334Z,99.90
2019-05-06T20:37:22.182Z,99.90
2019-05-06T20:39:54.453Z,99.90
2019-05-06T20:42:25.208Z,99.90
2019-05-06T20:44:55.159Z,99.90
2019-05-06T20:47:25.360Z,99.90
2019-05-06T20:49:55.226Z,99.90
2019-05-06T20:52:33.115Z,99.90
2019-05-06T20:55:02.913Z,99.90
2019-05-06T21:00:33.372Z,99.90
2019-05-06T21:03:06.663Z,99.90
2019-05-06T21:05:39.799Z,99.90
2019-05-06T21:08:09.532Z,99.90
2019-05-06T21:10:42.484Z,99.90
2019-05-06T21:13:14.791Z,99.90
2019-05-06T21:15:44.571Z,99.90
2019-05-06T21:18:16.801Z,99.90
2019-05-06T21:20:47.391Z,99.90
2019-05-06T21:23:22.731Z,99.90
2019-05-06T21:25:54.891Z,99.90
2019-05-06T21:28:25.289Z,99.90
2019-05-06T21:30:55.277Z,99.90
2019-05-06T21:33:24.941Z,99.90
2019-05-06T21:35:55.843Z,99.90
2019-05-06T21:38:25.921Z,99.90
2019-05-06T21:40:56.172Z,99.90
2019-05-06T21:43:26.432Z,99.90
2019-05-06T21:45:55.509Z,99.90
2019-05-06T21:48:24.358Z,99.90
2019-05-06T21:50:53.351Z,99.90
2019-05-06T21:53:23.102Z,99.90
2019-05-06T21:55:52.543Z,99.90
2019-05-06T21:58:24.814Z,99.90
2019-05-06T22:00:56.488Z,99.90
2019-05-06T22:03:26.048Z,99.90
2019-05-06T22:05:56.330Z,99.90
2019-05-06T22:08:25.085Z,99.90
2019-05-06T22:10:55.666Z,99.90
2019-05-06T22:13:26.646Z,99.90
2019-05-06T22:15:58.972Z,99.90
2019-05-06T22:18:30.586Z,99.90
2019-05-06T22:21:06.411Z,99.90
2019-05-06T22:23:51.070Z,99.90
2019-05-06T22:26:23.144Z,99.90
2019-05-06T22:28:52.947Z,99.90
2019-05-06T22:31:24.364Z,99.90
2019-05-06T22:33:53.488Z,99.90
2019-05-06T22:36:22.899Z,99.90
2019-05-06T22:38:53.578Z,99.90
2019-05-06T22:41:25.066Z,99.90
2019-05-06T22:43:53.408Z,99.90
2019-05-06T22:46:23.402Z,99.90
2019-05-06T22:48:57.179Z,99.90
2019-05-06T22:51:27.510Z,99.90
2019-05-06T22:53:58.052Z,99.90
2019-05-06T22:56:27.983Z,99.90
2019-05-06T22:58:57.027Z,99.90
2019-05-06T23:01:36.200Z,99.90
2019-05-06T23:04:07.427Z,99.90
2019-05-06T23:06:36.588Z,99.90
2019-05-06T23:09:08.544Z,99.90
2019-05-06T23:11:39.096Z,99.90
2019-05-06T23:14:12.462Z,99.90
2019-05-06T23:16:43.623Z,99.90
2019-05-06T23:19:16.719Z,99.90
2019-05-06T23:21:46.692Z,99.90
2019-05-06T23:24:18.602Z,99.90
2019-05-06T23:26:48.435Z,99.90
2019-05-06T23:29:17.762Z,99.90
2019-05-06T23:31:48.221Z,99.90
2019-05-06T23:34:23.113Z,99.90
2019-05-06T23:37:02.860Z,99.90
2019-05-06T23:40:18.864Z,99.90
2019-05-06T23:43:24.157Z,99.90
2019-05-06T23:46:32.523Z,99.90
2019-05-06T23:49:39.562Z,99.90
2019-05-06T23:52:47.542Z,99.90
2019-05-06T23:55:53.513Z,99.90
2019-05-06T23:58:24.655Z,99.90
